Hubbard, TX (76648)

8:10 PM CST on November 25, 2014 (GMT -0600)
KTXHUBBA2 | Change Station
CLOSE
Current Station
Personal Weather Station
Location: Hubbard, TX
Elevation: 525 ft
Nearby Weather Stations

Elev 525 ft 31.79 °N, 96.75 °W | Updated 1 minute ago

Clear
Clear
48.5 °F
Feels Like 48 °F
N
0.0
Wind Variable Wind from West
Gusts 0.0 mph

Today
High -- | Low -- °F
--% Chance of Precip.
Yesterday
High -- | Low -- °F
Precip. -- in
7:04 AM 5:23 PM
Waxing Crescent, 15% visible
Pressure 30.20 in
Visibility 10.0 miles
Clouds Clear
Windchill 48 °F
Dew Point 33 °F
Humidity 54%
Rainfall 0.00 in
Snow Depth Not available.
UV 0 out of 12
Pollen 4.40 out of 12
Air Quality Not available.
Flu Activity Not available.
METAR KCNW 260053Z 23003KT 10SM SKC 10/00 A3020

More Conditions Fewer Conditions

Pressure 30.20 in
Visibility 10.0 miles
Clouds Clear
Windchill 48 °F
Dew Point 33 °F
Humidity 54%
Rainfall 0.00 in
Snow Depth Not available.
UV 0 out of 12
Pollen 4.40 out of 12
Air Quality Not available.
Flu Activity Not available.
METAR KCNW 260053Z 23003KT 10SM SKC 10/00 A3020

More Conditions Fewer Conditions

10-Day Weather Forecast

Almanac

Astronomy

Nov. 25, 2014 Rise Set
Actual Time
Civil Twilight
Nautical Twilight
Astronomical Twilight
Moon
Length of Visible Light
Length of Day
Tomorrow will be .
, % of the Moon is Illuminated

Today's Extremes

State Highs State Lows

Community

WunderPhotos

Upload Photos

1,773,642 photos uploaded!

WunderBlogs® & News

Nearby

Air Quality

  Air Quality AQ Index Pollutant
Not available.

Snow Depth

Station Depth Elevation

Earthquake Activity

City Distance Mag. Time & Date
Minimum magnitude displayed is 2.5.

Coastal Water Temperatures

Place Temperature

Nearby Weather Stations